Aérodrome :
LOGIN :

S'inscrire | Disclaimer

   EN    FR    IT 

 










Légende :    VFR   VFR Marginal   IFR   IFR Intensif   IFR Très Intensif
Visi : 
Plafond : 
>= 8 km
>= 3000ft
5 à 8 km
1000 à 3000 ft
1500m à 5 km
500 à 1000 ft
800 à 1500m
200 à 500 ft
< 800m
< 200 ft
Symboles :   Orages  Brouillard  Fortes neiges  Fortes précipitations  Vent > 20 kt
SIGMETs :   Divers  Orages  Givrage  Turbulence  Onde Orograph.  Cendres Volcan.






- Altitude de l'aérodrome : 1516 ft
- Code IATA : AGB


EDMA - Augsburg

DERNIER METAR :
  • 171820Z 24011KT 9999 SCT042 11/07 Q1010

METARs EXPIRÉS :
  • 171750Z 25009KT 220V280 9999 SCT040 11/07 Q1010
  • 171720Z 25008KT 9999 SCT041 11/07 Q1010
  • 171650Z 25009KT 9999 FEW016 SCT041 11/07 Q1010
  • 171620Z 26017G29KT 8000 3000S SHRA FEW016 SCT030TCU 09/06 Q1011
  • 171550Z 25017KT 8000 SHRA FEW024 BKN045TCU 12/06 Q1009

TAF TAF EDMA
Valide du 17 à 18h jusqu'au 18 à 03h UTC


171700Z 1718/1803 26015G25KT 9999 SCT015 SCT035
PROB40
TEMPO 1718/1720 SHRA BKN030TCU
BECMG 1718/1720 24010KT



MET'MAP, la Météo Aéronautique d'un coup d'oeil ! - Copyright ORBIFLY Décembre 2007 - Disclaimer

ORBIFLY MET'MAP TEAM :

Programmation & Développement : Alexandra Zaïnal
Sur une idée originale de : Baudouin d'Aumeries
Assistance à la programmation : Marc-Olivier Méhu
Soutien technique & logistique : Manuel Goepfert

Contact : metmap@orbifly.com




SOURCES & CREDITS :

   NOAA